Latest Coastal Weather Observations for Samuel Hill

IDQ60701

Issued at 3:45 pm EST Saturday 19 April 2014 (issued every 10 minutes, with the page automatically refreshed every 10 minutes)

About coastal observations | Map of coastal stations | Coastal observations for QLD | Marine services | Other Formats
Station Details ID: 033308 Name: SAMUEL HILL AERO Lat: -22.74 Lon: 150.66 Height: 31.0 m
Data from the previous 72 hours. | See also: Recent months at Samuel Hill
Date/Time
EST
Temp

°C
Wind Pressure Rain
since 9am
mm
Weather Cloud Vis
km
Sea
Height
m
Swell
Dir
 
Speed
knots
Gust
knots
hPa Trend Height
m
Period
s
Dir
19/03:30pm 27.3 NE 7 9 1013.7 - 0.0 - - 10 - - - -
19/03:00pm 27.4 NNE 7 10 1013.5 - 0.0 - - 10 - - - -
19/02:30pm 26.7 NE 6 9 1013.9 - 0.0 - Partly cloudy 10 - - - -
19/02:00pm 27.4 ENE 6 9 1014.0 - 0.0 - Partly cloudy 10 - - - -
19/01:30pm 29.5 SSW 3 6 1014.5 - 0.0 - Partly cloudy 10 - - - -
19/01:00pm 28.4 SSW 5 8 1014.7 - 0.0 - - 10 - - - -
19/12:30pm 27.7 W 5 9 1015.2 - 0.0 - Partly cloudy 10 - - - -
19/12:00pm 27.7 E 2 5 1015.5 - 0.0 - Mostly clear 10 - - - -
19/11:30am 27.8 W 4 7 1016.1 - 0.0 - Partly cloudy 10 - - - -
19/11:00am 27.5 ESE 3 7 1016.7 - 0.0 - Partly cloudy 10 - - - -
19/10:30am 26.1 SW 5 8 1017.0 - 0.0 - Partly cloudy 10 - - - -
19/10:00am 26.2 WSW 4 7 1017.2 - 0.0 - Partly cloudy 10 - - - -
19/09:30am 25.0 SSW 4 6 1017.3 - 0.0 - - 10 - - - -
19/09:00am 23.4 SW 3 5 1017.3 - 0.0 - - 10 - - - -
19/08:30am 22.2 CALM 0 0 1017.6 - 0.0 - - 10 - - - -
19/08:00am 19.9 SSW 2 4 1017.5 - 0.0 - - 10 - - - -
19/07:30am 18.6 CALM 0 0 1017.4 - 0.0 - Partly cloudy 10 - - - -
19/07:27am 18.3 CALM 0 0 1017.4 - 0.0 - Partly cloudy 10 - - - -
19/07:14am 17.0 CALM 0 0 1017.3 - 0.0 - Partly cloudy 6 - - - -
19/07:00am 16.2 CALM 0 0 1017.2 - 0.0 - Partly cloudy 1 - - - -
19/06:30am 15.4 CALM 0 0 1016.9 - 0.0 - Partly cloudy 1 - - - -
19/06:00am 15.2 CALM 0 0 1016.4 - 0.0 - Mostly cloudy 1 - - - -
19/05:51am 15.3 CALM 0 0 1016.6 - 0.0 - Partly cloudy 5 - - - -
19/05:39am 15.1 CALM 0 0 1016.6 - 0.0 - Partly cloudy 10 - - - -
19/05:30am 15.3 CALM 0 0 1016.5 - 0.0 - Partly cloudy 10 - - - -
19/05:00am 15.2 CALM 0 0 1016.2 - 0.0 - - 10 - - - -
19/04:30am 15.5 CALM 0 0 1015.9 - 0.0 - - 10 - - - -
19/04:00am 15.7 CALM 0 0 1015.9 - 0.0 - - 10 - - - -
19/03:30am 16.1 CALM 0 0 1015.8 - 0.0 - - 10 - - - -
19/03:00am 16.0 CALM 0 0 1015.8 - 0.0 - - 10 - - - -
19/02:30am 16.5 CALM 0 0 1016.1 - 0.0 - - 10 - - - -
19/02:00am 16.4 CALM 0 0 1016.2 - 0.0 - - 10 - - - -
19/01:30am 16.7 CALM 0 0 1016.3 - 0.0 - - 10 - - - -
19/01:00am 17.1 CALM 0 0 1016.5 - 0.0 - - 10 - - - -
19/12:30am 17.5 CALM 0 0 1016.6 - 0.0 - - 10 - - - -
19/12:00am 17.3 WNW 0 0 1016.5 - 0.0 - - 10 - - - -
 
Date/Time
EST
Temp

°C
Wind Pressure Rain
since 9am
mm
Weather Cloud Vis
km
Sea
Height
m
Swell
Dir
 
Speed
knots
Gust
knots
hPa Trend Height
m
Period
s
Dir
18/11:30pm 17.7 CALM 0 0 1016.8 - 0.0 - - 10 - - - -
18/11:00pm 18.1 CALM 0 0 1016.7 - 0.0 - - 10 - - - -
18/10:30pm 18.2 CALM 0 0 1016.8 - 0.0 - - 10 - - - -
18/10:00pm 18.9 CALM 0 0 1016.8 - 0.0 - - 10 - - - -
18/09:30pm 19.0 CALM 0 0 1016.9 - 0.0 - - 10 - - - -
18/09:00pm 19.4 CALM 0 0 1016.7 - 0.0 - - 10 - - - -
18/08:30pm 20.2 CALM 0 0 1016.7 - 0.0 - - 10 - - - -
18/08:00pm 20.5 CALM 0 0 1016.4 - 0.0 - - 10 - - - -
18/07:30pm 21.0 CALM 0 0 1016.1 - 0.0 - Partly cloudy 10 - - - -
18/07:00pm 21.3 CALM 0 0 1015.8 - 0.0 - - 10 - - - -
18/06:30pm 22.5 NW 2 4 1015.3 - 0.0 - Partly cloudy 10 - - - -
18/06:00pm 22.7 N 3 4 1014.8 - 0.0 - - 10 - - - -
18/05:30pm 24.2 NNE 4 5 1014.6 - 0.0 - - 10 - - - -
18/05:00pm 25.2 N 5 7 1014.4 - 0.0 - Partly cloudy 10 - - - -
18/04:30pm 26.4 N 6 9 1014.0 - 0.0 - Partly cloudy 10 - - - -
18/04:00pm 26.6 NNE 7 11 1013.7 - 0.0 - Partly cloudy 10 - - - -
18/03:30pm 26.6 N 7 10 1013.5 - 0.0 - Partly cloudy 10 - - - -
18/03:00pm 27.3 N 8 12 1013.2 - 0.0 - - 10 - - - -
18/02:30pm 27.5 N 8 11 1013.5 - 0.0 - - 10 - - - -
18/02:00pm 27.1 NNE 8 11 1013.8 - 0.0 - Partly cloudy 10 - - - -
18/01:30pm 25.9 NE 8 12 1014.1 - 0.0 - Partly cloudy 10 - - - -
18/01:00pm 26.3 E 6 9 1014.3 - 0.0 - Partly cloudy 10 - - - -
18/12:30pm 28.0 W 5 14 1014.6 - 0.0 - Partly cloudy 10 - - - -
18/12:00pm 27.0 SE 5 9 1014.9 - 0.0 - Partly cloudy 10 - - - -
18/11:30am 27.3 SSE 4 7 1015.7 - 0.0 - - 10 - - - -
18/11:00am 27.8 CALM 0 6 1016.2 - 0.0 - Partly cloudy 10 - - - -
18/10:30am 27.3 WNW 2 5 1016.5 - 0.0 - Partly cloudy 10 - - - -
18/10:00am 26.2 SW 4 6 1016.7 - 0.0 - Partly cloudy 10 - - - -
18/09:30am 25.8 WNW 1 4 1017.0 - 0.0 - - 10 - - - -
18/09:00am 25.1 CALM 0 0 1016.9 - 0.2 - - 10 - - - -
18/08:30am 23.6 CALM 0 0 1017.2 - 0.2 - - 10 - - - -
18/08:00am 21.9 CALM 0 0 1017.1 - 0.2 - - 10 - - - -
18/07:30am 19.8 SSW 1 4 1017.0 - 0.2 - - 10 - - - -
18/07:00am 18.2 CALM 0 0 1016.8 - 0.2 - - 10 - - - -
18/06:30am 16.6 CALM 0 0 1016.7 - 0.2 - - 10 - - - -
18/06:00am 16.7 CALM 0 0 1016.2 - 0.2 - - 10 - - - -
18/05:30am 16.8 CALM 0 0 1016.3 - 0.2 - - 10 - - - -
18/05:00am 17.1 CALM 0 0 1016.1 - 0.2 - - 10 - - - -
18/04:41am 17.0 CALM 0 0 1016.1 - 0.2 - Partly cloudy 10 - - - -
18/04:30am 17.2 CALM 0 0 1016.1 - 0.2 - Partly cloudy 6 - - - -
18/04:22am 17.2 CALM 0 0 1016.1 - 0.2 - Partly cloudy 1 - - - -
18/04:00am 17.6 CALM 0 0 1016.0 - 0.0 - Cloudy 0.8 - - - -
18/03:33am 17.5 CALM 0 0 1015.8 - 0.0 - Partly cloudy 0.9 - - - -
18/03:30am 17.4 CALM 0 0 1015.8 - 0.0 - Partly cloudy 1 - - - -
18/03:26am 17.4 CALM 0 0 1015.8 - 0.0 - Partly cloudy 5 - - - -
18/03:00am 17.4 CALM 0 0 1015.6 - 0.0 - - 10 - - - -
18/02:30am 17.6 CALM 0 0 1016.0 - 0.0 - - 10 - - - -
18/02:00am 18.0 CALM 0 0 1016.2 - 0.0 - - 10 - - - -
18/01:30am 18.1 CALM 0 0 1016.4 - 0.0 - - 10 - - - -
18/01:00am 18.5 CALM 0 0 1016.6 - 0.0 - - 10 - - - -
18/12:30am 18.4 CALM 0 0 1016.7 - 0.0 - - 10 - - - -
18/12:00am 18.7 CALM 0 0 1016.8 - 0.0 - - 10 - - - -
 
Date/Time
EST
Temp

°C
Wind Pressure Rain
since 9am
mm
Weather Cloud Vis
km
Sea
Height
m
Swell
Dir
 
Speed
knots
Gust
knots
hPa Trend Height
m
Period
s
Dir
17/11:30pm 19.2 CALM 0 0 1017.1 - 0.0 - - 10 - - - -
17/11:00pm 19.4 CALM 0 0 1017.2 - 0.0 - - 10 - - - -
17/10:30pm 20.1 CALM 0 0 1017.3 - 0.0 - - 10 - - - -
17/10:00pm 20.2 CALM 0 0 1017.2 - 0.0 - - 10 - - - -
17/09:30pm 20.7 CALM 0 0 1017.1 - 0.0 - Partly cloudy 10 - - - -
17/09:00pm 21.5 CALM 0 2 1017.0 - 0.0 - Cloudy 10 - - - -
17/08:30pm 21.8 SE 2 3 1016.9 - 0.0 - Partly cloudy 10 - - - -
17/08:00pm 22.1 CALM 0 0 1016.6 - 0.0 - Partly cloudy 10 - - - -
17/07:30pm 22.7 WNW 1 5 1016.3 - 0.0 - Partly cloudy 10 - - - -
17/07:00pm 23.0 N 5 8 1015.8 - 0.0 - Partly cloudy 10 - - - -
17/06:30pm 22.9 N 3 5 1015.5 - 0.0 - Partly cloudy 10 - - - -
17/06:00pm 23.3 SE 4 5 1015.3 - 0.0 - Cloudy 10 - - - -
17/05:30pm 23.7 NNE 4 5 1015.2 - 0.0 - Partly cloudy 10 - - - -
17/05:00pm 24.0 ENE 4 6 1014.9 - 0.0 - Partly cloudy 10 - - - -
17/04:30pm 24.3 NE 5 8 1014.6 - 0.0 - Partly cloudy 10 - - - -
17/04:00pm 24.9 NE 7 12 1014.4 - 0.0 - Partly cloudy 10 - - - -
17/03:30pm 26.3 N 8 11 1014.2 - 0.0 - - 10 - - - -
17/03:00pm 26.5 N 7 11 1014.0 - 0.0 - Mostly clear 10 - - - -
17/02:30pm 27.4 N 6 9 1014.4 - 0.0 - - 10 - - - -
17/02:00pm 26.6 NNE 6 9 1014.7 - 0.0 - Partly cloudy 10 - - - -
17/01:30pm 25.4 NE 5 8 1015.1 - 0.0 - Partly cloudy 10 - - - -
17/01:00pm 25.7 ENE 7 9 1015.4 - 0.0 - Partly cloudy 10 - - - -
17/12:30pm 26.1 ENE 6 9 1015.8 - 0.0 - Cloudy 10 - - - -
17/12:00pm 27.4 E 5 8 1016.0 - 0.0 - Cloudy 10 - - - -
17/11:30am 27.7 ENE 3 8 1016.6 - 0.0 - Partly cloudy 10 - - - -
17/11:00am 26.1 ENE 4 6 1017.2 - 0.0 - Partly cloudy 10 - - - -
17/10:40am 25.3 E 3 4 1017.5 - 0.0 - Partly cloudy 10 - - - -
17/10:30am 25.2 NE 2 4 1017.5 - 0.0 - - 10 - - - -
17/10:00am 25.7 N 2 5 1017.6 - 0.0 - - 10 - - - -
17/09:30am 26.6 E 3 5 1017.7 - 0.0 - - 10 - - - -
17/09:00am 25.2 ESE 2 5 1017.5 - 0.0 - - 10 - - - -
17/08:30am 23.6 CALM 0 3 1017.6 - 0.0 - - 10 - - - -
17/08:00am 21.4 CALM 0 0 1017.4 - 0.0 - - 10 - - - -
17/07:30am 19.9 CALM 0 0 1017.3 - 0.0 - - 10 - - - -
17/07:00am 18.3 CALM 0 0 1017.0 - 0.0 - - 10 - - - -
17/06:30am 17.2 CALM 0 0 1016.6 - 0.0 - - 10 - - - -
17/06:00am 17.3 CALM 0 0 1016.0 - 0.0 - - 10 - - - -
17/05:30am 17.3 CALM 0 0 1016.0 - 0.0 - - 10 - - - -
17/05:00am 17.8 CALM 0 0 1015.7 - 0.0 - - 10 - - - -
17/04:30am 18.0 CALM 0 0 1015.6 - 0.0 - - 10 - - - -
17/04:00am 17.9 WSW 2 4 1015.4 - 0.0 - - 10 - - - -
17/03:30am 17.8 CALM 0 0 1015.2 - 0.0 - - 10 - - - -
17/03:00am 18.0 CALM 0 0 1014.9 - 0.0 - - 10 - - - -
17/02:30am 18.3 CALM 0 0 1015.1 - 0.0 - - 10 - - - -
17/02:00am 18.9 CALM 0 0 1015.2 - 0.0 - - 10 - - - -
17/01:30am 19.0 CALM 0 0 1015.3 - 0.0 - - 10 - - - -
17/01:00am 19.0 SSW 1 4 1015.4 - 0.0 - - 10 - - - -
17/12:30am 19.3 CALM 0 0 1015.8 - 0.0 - - 10 - - - -
17/12:00am 19.6 CALM 0 0 1015.9 - 0.0 - - 10 - - - -
 
Date/Time
EST
Temp

°C
Wind Pressure Rain
since 9am
mm
Weather Cloud Vis
km
Sea
Height
m
Swell
Dir
 
Speed
knots
Gust
knots
hPa Trend Height
m
Period
s
Dir
16/11:30pm 19.2 CALM 0 0 1016.0 - 0.0 - - 10 - - - -
16/11:00pm 19.5 CALM 0 0 1016.0 - 0.0 - - 10 - - - -
16/10:30pm 19.6 CALM 0 0 1016.0 - 0.0 - - 10 - - - -
16/10:00pm 19.3 CALM 0 0 1016.0 - 0.0 - - 10 - - - -
16/09:30pm 19.6 CALM 0 0 1015.8 - 0.0 - - 10 - - - -
16/09:00pm 19.7 CALM 0 0 1015.3 - 0.0 - - 10 - - - -
16/08:30pm 20.1 CALM 0 0 1015.4 - 0.0 - - 10 - - - -
16/08:00pm 20.5 CALM 0 2 1015.4 - 0.0 - - 10 - - - -
16/07:30pm 20.8 SSE 4 5 1015.0 - 0.0 - - 10 - - - -
16/07:00pm 21.4 N 1 3 1014.5 - 0.0 - - 10 - - - -
16/06:30pm 22.1 CALM 0 4 1014.3 - 0.0 - - 10 - - - -
16/06:00pm 22.6 NE 3 4 1014.0 - 0.0 - - 10 - - - -
16/05:30pm 23.7 NE 4 5 1013.8 - 0.0 - - 10 - - - -
16/05:00pm 24.8 NE 6 9 1013.5 - 0.0 - - 10 - - - -
16/04:30pm 24.6 NNE 6 10 1013.4 - 0.0 - - 10 - - - -
16/04:00pm 25.2 NE 7 10 1013.3 - 0.0 - - 10 - - - -

Other Formats:

Comma delimited format used in spreadsheet applications
http://www.bom.gov.au/fwo/IDQ60701/IDQ60701.94370.axf

JavaScript Object Notation format (JSON) in row-major order
http://www.bom.gov.au/fwo/IDQ60701/IDQ60701.94370.json